Terminal Aerodrome Forecast
Issued by NWS Memphis, TN

Home | Current Version | Previous Version | Text Only | Print | Product List | Glossary On
Versions: 1 2 3 4 5 6 7 8 9 10 11 12 13 14 15 16 17 18 19 20 21
000
FTUS44 KMEG 030520
TAFMKL
TAF
KMKL 030520Z 0306/0406 00000KT P6SM VCSH OVC019
     FM030800 13003KT 4SM -DZ BR OVC009
     FM031200 18004KT 4SM -DZ BR OVC008
     FM031800 21010KT 4SM BR OVC008
     FM040300 21008KT 4SM BR VCSH OVC008=

USA.gov is the U.S. government's official web portal to all federal, state and local government web resources and services.